Time;durP1;ratioP1;P1;durP2;ratioP2;P2;SDS_P1;SDS_P2;PMS_P1;PMS_P2;Temp;Humidity;BMP_temperature;BMP_pressure;BME280_temperature;BME280_humidity;BME280_pressure;Samples;Min_cycle;Max_cycle;Signal;HPM_P1;HPM_P2
2021/08/09 00:00:13;;;;;;;1134.80;886.23;;;;;;;15.34;85.21;101128.81;4980048;28;20214;-72
2021/08/09 00:02:38;;;;;;;1004.60;751.93;;;;;;;15.20;84.99;101113.78;4985296;28;20224;-71
2021/08/09 00:05:04;;;;;;;1102.57;869.60;;;;;;;15.37;85.36;101132.97;4979414;28;20716;-72
2021/08/09 00:07:30;;;;;;;1117.87;857.20;;;;;;;15.23;85.31;101118.75;4970247;28;20269;-73
2021/08/09 00:09:55;;;;;;;1114.87;794.77;;;;;;;15.24;84.07;101143.88;4980496;28;20543;-74
2021/08/09 00:12:21;;;;;;;1055.07;779.10;;;;;;;14.97;85.45;101098.22;4983663;28;20186;-72
2021/08/09 00:14:46;;;;;;;1083.90;800.37;;;;;;;15.16;84.62;101123.41;4982337;28;20189;-73
2021/08/09 00:17:12;;;;;;;1045.70;769.60;;;;;;;15.21;85.15;101145.16;4983831;28;20578;-72
2021/08/09 00:19:37;;;;;;;1109.90;841.73;;;;;;;14.80;85.38;101083.63;4982151;28;20206;-73
2021/08/09 00:22:03;;;;;;;1065.23;817.70;;;;;;;15.23;85.07;101153.88;4980435;28;20214;-73
2021/08/09 00:24:29;;;;;;;1218.67;906.23;;;;;;;14.98;84.54;101099.03;4981605;28;20185;-73
2021/08/09 00:26:55;;;;;;;980.23;747.73;;;;;;;15.29;84.05;101144.88;4979742;28;20500;-74
2021/08/09 00:29:22;;;;;;;1195.43;897.17;;;;;;;15.32;84.41;101132.81;4982667;28;20296;-73
2021/08/09 00:31:48;;;;;;;1086.80;812.30;;;;;;;15.28;84.10;101135.13;4977925;28;20449;-74
2021/08/09 00:34:13;;;;;;;1106.83;752.70;;;;;;;15.18;83.72;101132.09;4979336;28;20489;-73
2021/08/09 00:36:38;;;;;;;1079.43;852.53;;;;;;;15.22;84.41;101154.94;4977697;28;20186;-73
2021/08/09 00:39:04;;;;;;;1048.47;785.83;;;;;;;15.28;83.70;101137.00;4980425;28;20221;-73
2021/08/09 00:41:29;;;;;;;968.23;749.43;;;;;;;14.90;83.17;101082.06;4979369;28;20699;-74
2021/08/09 00:43:55;;;;;;;1011.17;733.23;;;;;;;15.23;83.18;101153.06;4981674;28;20559;-73
2021/08/09 00:46:20;;;;;;;1020.07;824.47;;;;;;;15.44;83.09;101152.63;4980205;28;20534;-75
2021/08/09 00:48:46;;;;;;;989.60;801.00;;;;;;;15.10;84.02;101135.06;4977977;28;20202;-73
2021/08/09 00:51:12;;;;;;;941.43;696.03;;;;;;;14.69;83.28;101066.25;4977411;28;20595;-74
2021/08/09 00:53:39;;;;;;;980.23;765.03;;;;;;;15.17;83.77;101159.34;4977367;28;20448;-73
2021/08/09 00:56:05;;;;;;;1069.70;824.27;;;;;;;15.21;83.77;101163.25;4979651;28;20441;-73
2021/08/09 00:58:31;;;;;;;1043.07;802.60;;;;;;;14.96;83.95;101138.97;4977017;28;21010;-73
2021/08/09 01:00:57;;;;;;;1055.30;794.60;;;;;;;15.14;83.53;101158.75;4978537;28;20229;-74
2021/08/09 01:03:22;;;;;;;1003.07;761.23;;;;;;;15.11;83.17;101144.84;4979532;28;20855;-74
2021/08/09 01:05:49;;;;;;;1168.23;864.60;;;;;;;15.22;83.40;101163.03;4979489;28;20194;-74
2021/08/09 01:08:41;;;;;;;898.40;680.53;;;;;;;14.77;84.05;101117.28;4973773;28;20715;-74
2021/08/09 01:11:19;;;;;;;988.70;750.07;;;;;;;15.21;83.28;101163.25;4979857;28;20444;-75
2021/08/09 01:13:50;;;;;;;981.07;741.00;;;;;;;15.07;83.60;101157.97;4977757;28;20520;-72
2021/08/09 01:16:17;;;;;;;959.13;684.33;;;;;;;14.93;83.79;101161.84;4982043;28;20453;-72
2021/08/09 01:18:44;;;;;;;1021.30;783.50;;;;;;;14.97;84.43;101164.91;4980252;28;20456;-71
2021/08/09 01:21:11;;;;;;;1000.90;751.37;;;;;;;15.00;83.69;101140.16;4977652;28;20461;-71
2021/08/09 01:24:07;;;;;;;1040.50;795.57;;;;;;;15.09;83.86;101172.06;4979538;28;20483;-71
2021/08/09 01:26:55;;;;;;;1074.30;796.70;;;;;;;14.97;84.43;101164.91;4978624;28;20430;-72
2021/08/09 01:29:33;;;;;;;956.40;709.17;;;;;;;14.87;84.88;101165.41;4978134;28;20582;-72
2021/08/09 01:32:00;;;;;;;1030.13;777.17;;;;;;;14.93;83.93;101167.25;4975862;28;20445;-72
2021/08/09 01:34:27;;;;;;;987.27;742.50;;;;;;;14.99;83.89;101177.16;4979409;28;20486;-72
2021/08/09 01:36:55;;;;;;;1017.03;758.90;;;;;;;14.89;84.39;101176.81;4975606;28;20433;-72
2021/08/09 01:39:21;;;;;;;1066.63;837.27;;;;;;;14.37;84.77;101097.81;4978428;28;20460;-72
2021/08/09 01:41:49;;;;;;;1050.63;825.20;;;;;;;14.88;84.67;101188.66;4974863;28;20622;-72
2021/08/09 01:44:15;;;;;;;912.60;684.10;;;;;;;14.80;84.32;101168.16;4979310;28;20189;-72
2021/08/09 01:46:41;;;;;;;939.20;691.03;;;;;;;14.86;84.09;101190.75;4976328;28;20515;-72
2021/08/09 01:49:08;;;;;;;1060.47;769.57;;;;;;;14.82;83.63;101157.13;4976295;28;20602;-72
2021/08/09 01:51:35;;;;;;;1034.87;764.03;;;;;;;14.50;84.77;101143.63;4977372;28;20733;-71
2021/08/09 01:54:04;;;;;;;1158.30;830.07;;;;;;;14.52;84.42;101152.34;4981895;28;20805;-72
2021/08/09 01:56:30;;;;;;;985.23;748.30;;;;;;;14.67;85.06;101204.19;4974632;28;20495;-71
2021/08/09 01:58:56;;;;;;;1063.23;757.93;;;;;;;14.76;84.61;101202.03;4979622;28;20550;-72
2021/08/09 02:01:22;;;;;;;1060.40;790.17;;;;;;;14.53;85.06;101172.06;4977775;28;21047;-72
2021/08/09 02:03:48;;;;;;;947.50;738.57;;;;;;;14.62;85.00;101187.78;4978390;28;20193;-71
2021/08/09 02:06:14;;;;;;;954.23;722.23;;;;;;;14.73;85.11;101207.06;4975327;28;20197;-72
2021/08/09 02:08:40;;;;;;;1110.80;841.97;;;;;;;14.35;84.95;101154.72;4975239;28;20463;-74
2021/08/09 02:11:13;;;;;;;950.43;749.43;;;;;;;14.37;84.83;101159.88;4979752;28;20437;-73
2021/08/09 02:13:50;;;;;;;929.47;747.03;;;;;;;14.66;85.04;101229.50;4977204;28;20194;-75
2021/08/09 02:16:34;;;;;;;1071.20;876.97;;;;;;;14.72;84.73;101232.38;4979549;28;20433;-75
2021/08/09 02:19:03;;;;;;;1055.47;792.73;;;;;;;14.68;85.10;101226.59;4974429;28;20452;-73
2021/08/09 02:21:32;;;;;;;1041.47;771.30;;;;;;;14.71;85.49;101226.16;4976492;28;20474;-73
2021/08/09 02:24:01;;;;;;;1030.07;825.63;;;;;;;14.84;84.19;101241.44;4982583;28;20441;-74
2021/08/09 02:26:31;;;;;;;971.80;756.40;;;;;;;14.61;85.23;101226.63;4981339;28;20809;-73
2021/08/09 02:29:12;;;;;;;971.97;758.20;;;;;;;14.68;84.64;101235.50;4982540;28;20910;-71
2021/08/09 02:31:41;;;;;;;887.57;670.73;;;;;;;14.53;84.93;101197.19;4982266;28;20429;-71
2021/08/09 02:34:08;;;;;;;978.97;774.43;;;;;;;14.58;85.32;101229.78;4980100;28;20440;-71
2021/08/09 02:36:34;;;;;;;1003.93;753.43;;;;;;;14.78;84.68;101229.66;4985369;28;20452;-71
2021/08/09 02:39:00;;;;;;;973.50;763.87;;;;;;;14.68;84.83;101232.81;4982954;28;20463;-71
2021/08/09 02:41:26;;;;;;;1019.17;819.23;;;;;;;14.89;84.05;101223.53;4979713;28;20819;-72
2021/08/09 02:43:52;;;;;;;852.87;640.67;;;;;;;14.34;84.53;101154.91;4980521;28;20333;-72
2021/08/09 02:46:18;;;;;;;925.77;699.77;;;;;;;14.51;84.72;101199.25;4982018;28;20457;-71
2021/08/09 02:48:47;;;;;;;898.47;702.93;;;;;;;14.15;85.12;101162.91;4982079;28;20695;-72
2021/08/09 02:51:12;;;;;;;904.30;684.63;;;;;;;14.75;84.89;101242.75;4984881;28;20429;-71
2021/08/09 02:53:40;;;;;;;991.40;760.07;;;;;;;14.51;84.66;101196.53;4982328;28;20499;-74
2021/08/09 02:56:06;;;;;;;1024.03;788.67;;;;;;;14.85;84.21;101243.94;4976139;28;20200;-74
2021/08/09 02:58:31;;;;;;;1037.80;787.60;;;;;;;14.79;83.54;101190.81;4982976;28;20904;-74
2021/08/09 03:00:58;;;;;;;869.77;696.17;;;;;;;14.23;84.43;101153.72;4982080;28;20589;-74
2021/08/09 03:03:27;;;;;;;905.80;688.10;;;;;;;14.66;84.22;101215.19;4979121;28;20868;-75
2021/08/09 03:05:55;;;;;;;894.10;706.10;;;;;;;14.98;83.24;101231.38;4981785;28;20437;-74
2021/08/09 03:08:22;;;;;;;874.33;646.57;;;;;;;14.86;84.28;101244.75;4979558;28;20555;-73
2021/08/09 03:10:48;;;;;;;1039.23;816.97;;;;;;;14.86;84.26;101245.59;4980294;28;20848;-73
2021/08/09 03:13:13;;;;;;;964.53;738.87;;;;;;;14.74;84.47;101243.81;4982487;28;20491;-75
2021/08/09 03:15:41;;;;;;;946.33;745.37;;;;;;;14.27;83.97;101154.13;4983037;28;20516;-74
2021/08/09 03:18:06;;;;;;;946.53;721.07;;;;;;;14.58;84.67;101235.16;4978345;28;20581;-73
2021/08/09 03:20:32;;;;;;;953.07;738.40;;;;;;;14.74;84.73;101254.59;4980840;28;20473;-74
2021/08/09 03:22:58;;;;;;;854.93;651.17;;;;;;;14.70;84.52;101246.13;4982195;28;20188;-71
2021/08/09 03:25:23;;;;;;;1002.73;766.33;;;;;;;14.63;84.36;101234.50;4979911;28;20653;-71
2021/08/09 03:27:49;;;;;;;1055.27;825.23;;;;;;;14.65;84.31;101252.16;4997331;28;20460;-71
2021/08/09 03:30:16;;;;;;;808.40;603.63;;;;;;;14.72;84.21;101259.38;4981546;28;20190;-71
2021/08/09 03:32:41;;;;;;;963.60;738.17;;;;;;;14.83;83.52;101245.19;4981219;28;20647;-72
2021/08/09 03:35:07;;;;;;;941.67;732.20;;;;;;;14.63;84.17;101245.31;4981683;28;20447;-71
2021/08/09 03:37:33;;;;;;;1032.30;812.57;;;;;;;14.57;85.05;101256.97;4980541;28;20670;-71
2021/08/09 03:39:58;;;;;;;999.80;764.47;;;;;;;14.64;84.43;101246.97;4983102;28;20421;-71
2021/08/09 03:42:23;;;;;;;1079.97;866.50;;;;;;;14.42;84.42;101219.44;4979567;28;20654;-71
2021/08/09 03:44:49;;;;;;;918.13;673.70;;;;;;;14.43;84.50;101237.28;4980859;28;20185;-71
2021/08/09 03:47:15;;;;;;;881.00;659.33;;;;;;;14.49;84.22;101241.81;4973106;28;20213;-71
2021/08/09 03:49:40;;;;;;;1056.13;758.87;;;;;;;14.36;84.35;101245.41;4978185;28;20504;-72
2021/08/09 03:52:06;;;;;;;872.03;625.13;;;;;;;14.55;84.61;101295.00;4983645;28;20269;-71
2021/08/09 03:54:31;;;;;;;932.83;736.50;;;;;;;14.64;84.36;101282.91;4978022;28;20193;-71
2021/08/09 03:56:56;;;;;;;913.40;701.07;;;;;;;14.36;84.60;101247.28;4972670;28;20191;-71
2021/08/09 03:59:22;;;;;;;820.40;589.77;;;;;;;14.43;84.66;101258.84;4979047;28;20237;-71
2021/08/09 04:01:48;;;;;;;914.17;683.47;;;;;;;14.62;84.84;101282.28;4978276;28;20221;-71
2021/08/09 04:04:14;;;;;;;972.53;808.77;;;;;;;14.05;85.08;101204.84;4978190;28;20182;-71
2021/08/09 04:06:39;;;;;;;967.07;670.80;;;;;;;14.45;85.44;101284.59;4974954;28;20472;-71
2021/08/09 04:09:07;;;;;;;928.77;749.50;;;;;;;13.99;85.34;101215.44;4976971;28;20260;-71
2021/08/09 04:11:32;;;;;;;912.43;730.63;;;;;;;14.15;85.30;101245.69;4975043;28;20264;-70
2021/08/09 04:13:58;;;;;;;1056.00;797.23;;;;;;;14.49;84.86;101295.78;4975601;28;20581;-73
2021/08/09 04:16:24;;;;;;;1078.23;836.73;;;;;;;14.31;84.92;101263.28;4976949;28;21129;-73
2021/08/09 04:18:49;;;;;;;870.27;753.20;;;;;;;14.01;84.80;101232.25;4975241;28;20260;-74
2021/08/09 04:21:14;;;;;;;1044.23;814.33;;;;;;;14.23;85.02;101272.41;4978266;28;20465;-73
2021/08/09 04:23:40;;;;;;;1087.73;830.20;;;;;;;14.36;84.50;101244.56;4978252;28;20282;-72
2021/08/09 04:26:05;;;;;;;1099.37;849.43;;;;;;;14.00;85.40;101205.47;4980579;28;20195;-72
2021/08/09 04:28:31;;;;;;;998.83;783.27;;;;;;;13.91;85.36;101195.97;4980222;28;20202;-72
2021/08/09 04:30:56;;;;;;;1065.30;800.33;;;;;;;14.44;85.09;101274.03;4977397;28;20558;-73
2021/08/09 04:33:21;;;;;;;834.63;667.33;;;;;;;14.07;85.59;101248.63;4979013;28;20280;-72
2021/08/09 04:35:47;;;;;;;923.10;685.23;;;;;;;14.33;86.02;101283.59;4972018;28;20206;-73
2021/08/09 04:38:12;;;;;;;986.27;743.70;;;;;;;14.47;86.40;101301.41;4981521;28;20217;-73
2021/08/09 04:40:39;;;;;;;999.27;774.47;;;;;;;14.52;85.87;101308.06;4979709;28;20577;-73
2021/08/09 04:43:05;;;;;;;1035.83;809.13;;;;;;;14.42;86.13;101303.09;4976858;28;20240;-73
2021/08/09 04:45:30;;;;;;;851.67;643.83;;;;;;;14.51;85.45;101298.28;4974946;28;20881;-73
2021/08/09 04:47:55;;;;;;;993.50;799.57;;;;;;;14.44;86.09;101303.72;4980107;28;20423;-74
2021/08/09 04:50:21;;;;;;;910.80;689.33;;;;;;;14.41;85.28;101304.97;4978996;28;20229;-73
2021/08/09 04:52:46;;;;;;;995.97;762.83;;;;;;;14.27;85.65;101249.38;4981658;28;20554;-74
2021/08/09 04:55:13;;;;;;;905.47;693.70;;;;;;;14.64;85.63;101309.91;4972029;28;20197;-73
2021/08/09 04:57:38;;;;;;;959.40;743.57;;;;;;;14.49;85.78;101303.88;4976167;28;20201;-74
2021/08/09 05:00:06;;;;;;;889.40;673.07;;;;;;;14.66;84.66;101299.69;4978608;28;20437;-74
2021/08/09 05:02:31;;;;;;;892.57;703.80;;;;;;;14.40;85.21;101294.38;4979678;28;20191;-75
2021/08/09 05:04:59;;;;;;;1008.13;749.33;;;;;;;14.54;85.16;101312.22;4977239;28;20469;-73
2021/08/09 05:07:24;;;;;;;989.67;788.03;;;;;;;14.32;84.73;101256.81;4977102;28;20533;-73
2021/08/09 05:09:49;;;;;;;958.30;783.57;;;;;;;14.27;85.24;101264.75;4977641;28;20472;-73
2021/08/09 05:12:15;;;;;;;962.37;706.50;;;;;;;14.55;84.69;101305.78;4974718;28;20700;-74
2021/08/09 05:14:40;;;;;;;853.97;646.70;;;;;;;14.66;84.54;101315.88;4972925;28;20197;-73
2021/08/09 05:17:06;;;;;;;925.80;689.07;;;;;;;14.52;84.51;101297.25;4975200;28;20244;-73
2021/08/09 05:19:32;;;;;;;949.90;731.27;;;;;;;14.65;84.92;101316.94;4975589;28;20214;-74
2021/08/09 05:21:58;;;;;;;918.73;691.67;;;;;;;14.55;85.02;101284.19;4976906;28;20201;-74
2021/08/09 05:24:23;;;;;;;881.63;652.03;;;;;;;14.27;85.13;101284.47;4971948;28;20879;-73
2021/08/09 05:26:49;;;;;;;993.80;789.53;;;;;;;14.54;85.26;101322.19;4971658;28;20807;-73
2021/08/09 05:29:14;;;;;;;888.60;665.20;;;;;;;14.59;83.82;101298.09;4975171;28;20209;-74
2021/08/09 05:31:40;;;;;;;1009.03;762.37;;;;;;;14.34;83.90;101281.72;4981304;28;20232;-74
2021/08/09 05:34:05;;;;;;;811.10;586.37;;;;;;;13.88;84.27;101232.25;4977370;28;20185;-73
2021/08/09 05:36:30;;;;;;;921.17;630.53;;;;;;;14.07;84.67;101267.50;4980339;28;20181;-73
2021/08/09 05:38:58;;;;;;;967.20;706.67;;;;;;;14.62;84.30;101333.56;4980900;28;20210;-73
2021/08/09 05:41:23;;;;;;;890.63;649.77;;;;;;;14.20;83.90;101254.81;4970002;28;20232;-73
2021/08/09 05:43:49;;;;;;;890.50;692.57;;;;;;;14.55;84.63;101331.94;4977855;28;20979;-73
2021/08/09 05:46:14;;;;;;;1058.27;778.10;;;;;;;14.52;83.84;101291.88;4977006;28;20182;-73
2021/08/09 05:48:40;;;;;;;837.00;604.83;;;;;;;14.62;83.65;101324.66;4980613;28;20203;-74
2021/08/09 05:51:05;;;;;;;843.13;617.67;;;;;;;14.61;83.88;101336.47;4983409;28;20186;-73
2021/08/09 05:53:32;;;;;;;952.30;735.20;;;;;;;14.46;84.58;101337.56;4979160;28;20182;-73
2021/08/09 05:55:57;;;;;;;956.43;710.27;;;;;;;14.18;84.38;101296.53;4977462;28;20191;-74
2021/08/09 05:58:22;;;;;;;986.07;779.97;;;;;;;14.38;84.50;101307.28;4978715;28;20456;-73
2021/08/09 06:00:48;;;;;;;869.93;613.37;;;;;;;14.46;84.38;101329.47;4982637;28;20206;-74
2021/08/09 06:03:21;;;;;;;898.40;711.30;;;;;;;14.62;84.26;101330.88;4985555;28;20262;-74
2021/08/09 06:05:46;;;;;;;853.53;671.00;;;;;;;14.44;84.39;101303.72;4980349;28;20185;-74
2021/08/09 06:08:12;;;;;;;952.03;714.17;;;;;;;14.74;84.20;101339.13;4983273;28;20465;-73
2021/08/09 06:10:37;;;;;;;732.27;552.97;;;;;;;14.58;83.55;101312.59;4985145;28;20213;-74
2021/08/09 06:13:03;;;;;;;821.40;615.07;;;;;;;14.57;84.13;101314.47;4982808;28;20186;-73
2021/08/09 06:15:28;;;;;;;925.20;715.40;;;;;;;14.75;83.95;101334.56;4983334;28;20662;-73
2021/08/09 06:17:54;;;;;;;1022.03;783.03;;;;;;;14.65;83.94;101337.72;4981231;28;20645;-74
2021/08/09 06:20:19;;;;;;;905.83;713.23;;;;;;;14.45;84.50;101299.97;4982632;28;20210;-73
2021/08/09 06:22:44;;;;;;;977.63;761.93;;;;;;;14.08;84.20;101245.69;4983957;28;20690;-74
2021/08/09 06:25:10;;;;;;;984.13;789.90;;;;;;;14.43;84.22;101310.13;4981943;28;20178;-74
2021/08/09 06:27:35;;;;;;;962.43;740.23;;;;;;;14.75;84.28;101329.16;4983870;28;20608;-74
2021/08/09 06:30:01;;;;;;;962.13;749.10;;;;;;;14.92;83.75;101341.94;4985126;28;20685;-74
2021/08/09 06:32:26;;;;;;;1000.17;777.27;;;;;;;14.77;83.90;101354.09;4981056;28;20609;-74
2021/08/09 06:34:51;;;;;;;933.47;723.33;;;;;;;14.68;83.83;101331.91;4983225;28;20249;-73
2021/08/09 06:37:17;;;;;;;1013.13;803.00;;;;;;;14.36;84.03;101272.38;4983162;28;20289;-73
2021/08/09 06:39:43;;;;;;;1051.43;820.83;;;;;;;14.74;83.44;101325.63;4979993;28;20240;-74
2021/08/09 06:42:08;;;;;;;870.70;667.93;;;;;;;14.96;83.69;101363.97;4977945;28;20205;-74
2021/08/09 06:44:34;;;;;;;926.37;699.67;;;;;;;14.82;83.53;101362.38;4986444;28;20448;-74
2021/08/09 06:47:02;;;;;;;988.63;758.90;;;;;;;14.95;82.49;101338.00;4982002;28;20642;-74
2021/08/09 06:49:28;;;;;;;937.07;725.80;;;;;;;15.01;83.39;101355.22;4980296;28;20215;-74
2021/08/09 06:51:53;;;;;;;985.43;795.43;;;;;;;15.12;83.11;101362.63;4982851;28;20790;-74
2021/08/09 06:54:24;;;;;;;827.20;640.17;;;;;;;14.87;83.28;101338.25;4983193;28;20193;-74
2021/08/09 06:56:51;;;;;;;945.10;733.40;;;;;;;15.04;83.23;101361.03;4977394;28;20638;-74
2021/08/09 06:59:17;;;;;;;952.23;738.37;;;;;;;14.97;83.36;101373.72;4978808;28;20461;-74
2021/08/09 07:01:42;;;;;;;714.00;494.03;;;;;;;14.66;82.54;101318.59;4984375;28;20464;-73
2021/08/09 07:04:07;;;;;;;939.10;698.03;;;;;;;15.07;82.73;101365.16;4978495;28;20195;-73
2021/08/09 07:06:33;;;;;;;974.27;746.03;;;;;;;15.25;82.65;101389.59;4982633;28;20230;-73
2021/08/09 07:09:01;;;;;;;992.70;787.57;;;;;;;14.90;82.75;101335.13;4981805;28;20218;-74
2021/08/09 07:11:26;;;;;;;782.20;603.90;;;;;;;14.79;82.74;101320.41;4981102;28;20178;-74
2021/08/09 07:13:52;;;;;;;837.70;630.33;;;;;;;15.35;82.45;101381.84;4975867;28;20929;-74
2021/08/09 07:16:20;;;;;;;1009.13;791.60;;;;;;;15.34;82.06;101377.47;4979601;28;20193;-73
2021/08/09 07:18:46;;;;;;;873.67;637.53;;;;;;;15.23;82.53;101369.25;4977343;28;20480;-74
2021/08/09 07:21:11;;;;;;;1009.83;804.97;;;;;;;15.18;82.67;101377.16;4982528;28;20465;-74
2021/08/09 07:23:36;;;;;;;948.80;688.40;;;;;;;14.83;82.52;101331.63;4976630;28;20669;-74
2021/08/09 07:26:02;;;;;;;984.53;807.07;;;;;;;15.03;82.94;101363.94;4981520;28;20277;-73
2021/08/09 07:28:30;;;;;;;911.73;717.63;;;;;;;15.33;82.79;101386.66;4983590;28;20202;-73
2021/08/09 07:30:55;;;;;;;970.93;740.87;;;;;;;15.38;81.93;101388.69;4981981;28;20191;-74
2021/08/09 07:33:23;;;;;;;1133.93;897.90;;;;;;;14.97;82.15;101343.19;4986606;28;20816;-73
2021/08/09 07:35:48;;;;;;;882.40;654.83;;;;;;;15.09;81.68;101361.19;4980814;28;20194;-74
2021/08/09 07:38:14;;;;;;;1030.73;799.97;;;;;;;15.13;81.46;101354.34;4985494;28;20475;-73
2021/08/09 07:40:39;;;;;;;878.53;664.80;;;;;;;15.25;81.96;101361.75;4982990;28;20210;-74
2021/08/09 07:43:04;;;;;;;868.47;676.43;;;;;;;15.63;81.32;101401.44;4982178;28;20237;-74
2021/08/09 07:45:30;;;;;;;983.13;758.33;;;;;;;15.74;81.21;101396.19;4980593;28;20576;-74
2021/08/09 07:47:56;;;;;;;892.60;701.70;;;;;;;15.44;81.42;101366.19;4983717;28;20210;-73
2021/08/09 07:50:22;;;;;;;1103.27;862.80;;;;;;;15.73;80.41;101396.38;4976301;28;20205;-74
2021/08/09 07:52:48;;;;;;;957.90;739.57;;;;;;;15.73;80.71;101397.22;4980630;28;20482;-74
2021/08/09 07:55:13;;;;;;;829.60;594.67;;;;;;;15.56;80.81;101377.97;4980252;28;20310;-74
2021/08/09 07:57:39;;;;;;;936.40;722.97;;;;;;;15.67;81.43;101356.66;4980955;28;20886;-73
2021/08/09 08:00:05;;;;;;;1038.63;801.30;;;;;;;15.88;80.32;101396.91;4981965;28;20186;-75
2021/08/09 08:02:31;;;;;;;895.17;703.97;;;;;;;15.89;81.13;101384.22;4979703;28;20220;-73
2021/08/09 08:04:56;;;;;;;1064.93;813.77;;;;;;;15.79;80.47;101368.47;4978114;28;20438;-74
2021/08/09 08:07:21;;;;;;;908.17;709.60;;;;;;;16.05;81.07;101394.47;4979348;28;20195;-73
2021/08/09 08:09:48;;;;;;;942.97;742.90;;;;;;;15.88;80.66;101379.84;4981152;28;20290;-75
2021/08/09 08:12:14;;;;;;;936.13;756.07;;;;;;;16.01;80.28;101358.09;4984593;28;20187;-74
2021/08/09 08:14:40;;;;;;;1090.43;816.50;;;;;;;16.32;79.25;101378.81;4979822;28;20440;-73
2021/08/09 08:17:05;;;;;;;963.97;786.73;;;;;;;16.61;79.51;101379.97;4982818;28;20422;-74
2021/08/09 08:19:31;;;;;;;994.60;767.50;;;;;;;16.92;78.38;101399.84;4982335;28;20210;-74
2021/08/09 08:21:57;;;;;;;864.83;653.20;;;;;;;16.40;78.29;101320.81;4981124;28;20208;-74
2021/08/09 08:24:22;;;;;;;795.00;588.17;;;;;;;16.68;78.57;101393.44;4982929;28;20213;-74
2021/08/09 08:26:47;;;;;;;988.27;789.87;;;;;;;16.04;78.98;101334.09;4980825;28;20712;-74
2021/08/09 08:29:13;;;;;;;862.60;642.97;;;;;;;15.91;79.31;101320.72;4991484;28;20198;-74
2021/08/09 08:31:38;;;;;;;860.63;682.43;;;;;;;16.35;79.15;101372.97;4977521;28;20178;-74
2021/08/09 08:34:03;;;;;;;845.40;654.43;;;;;;;16.62;78.47;101399.75;4980108;28;20186;-74
2021/08/09 08:36:29;;;;;;;1021.53;815.80;;;;;;;16.72;78.65;101395.47;4975387;28;21337;-73
2021/08/09 08:38:56;;;;;;;810.37;605.33;;;;;;;16.69;78.06;101393.22;4978526;28;20212;-73
2021/08/09 08:41:21;;;;;;;883.40;683.20;;;;;;;16.97;78.81;101418.94;4980917;28;20193;-73
2021/08/09 08:43:47;;;;;;;796.57;594.60;;;;;;;16.86;78.29;101401.56;4974972;28;20942;-73
2021/08/09 08:46:12;;;;;;;890.47;691.40;;;;;;;17.00;77.62;101412.25;4977626;28;20721;-74
2021/08/09 08:48:38;;;;;;;874.60;676.73;;;;;;;17.14;77.15;101416.44;4981536;28;20707;-73
2021/08/09 08:51:04;;;;;;;860.00;617.93;;;;;;;16.98;77.38;101414.34;4975820;28;20185;-77
2021/08/09 08:53:32;;;;;;;972.13;765.53;;;;;;;16.91;77.38;101382.75;4974214;28;20194;-73
2021/08/09 08:55:58;;;;;;;880.17;672.10;;;;;;;17.07;78.09;101421.97;4973081;28;20556;-73
2021/08/09 08:58:23;;;;;;;782.63;629.13;;;;;;;16.89;77.85;101398.44;4980225;28;20466;-73
2021/08/09 09:00:50;;;;;;;977.77;731.60;;;;;;;16.90;77.14;101372.16;4978918;28;20472;-73
2021/08/09 09:03:19;;;;;;;1036.80;800.40;;;;;;;17.17;75.93;101413.28;4982261;28;20244;-75
2021/08/09 09:05:57;;;;;;;860.70;677.87;;;;;;;17.04;77.64;101425.13;4975831;28;20442;-73
2021/08/09 09:08:46;;;;;;;864.93;650.73;;;;;;;17.19;76.87;101427.44;4980107;28;20545;-75
2021/08/09 09:11:38;;;;;;;985.37;757.73;;;;;;;16.91;77.11;101425.28;4980691;28;21206;-74
2021/08/09 09:14:05;;;;;;;593.63;426.10;;;;;;;16.55;77.11;101374.59;4977597;28;20795;-73
2021/08/09 09:16:51;;;;;;;882.83;680.80;;;;;;;17.17;77.06;101443.09;4974989;28;20441;-73
2021/08/09 09:19:37;;;;;;;909.27;711.97;;;;;;;17.10;77.18;101439.66;4981210;28;20548;-74
2021/08/09 09:22:32;;;;;;;896.67;682.87;;;;;;;17.02;76.70;101445.38;4982439;28;20876;-73
2021/08/09 09:24:57;;;;;;;866.97;636.63;;;;;;;16.79;77.11;101394.59;4978535;28;20451;-73
2021/08/09 09:27:41;;;;;;;954.77;748.77;;;;;;;16.97;77.09;101424.38;4981413;28;20449;-72
2021/08/09 09:30:29;;;;;;;798.07;592.03;;;;;;;17.20;77.65;101433.69;4979763;28;20217;-73
2021/08/09 09:33:01;;;;;;;1076.47;787.73;;;;;;;16.97;76.97;101439.81;4981027;28;20969;-73
2021/08/09 09:35:27;;;;;;;665.33;454.83;;;;;;;16.33;75.92;101326.31;4982397;28;20429;-73
2021/08/09 09:37:53;;;;;;;942.73;720.43;;;;;;;16.88;76.21;101437.41;4977962;28;20555;-74
2021/08/09 09:40:20;;;;;;;679.20;513.67;;;;;;;16.75;76.50;101407.75;4977399;28;20193;-74
2021/08/09 09:42:46;;;;;;;932.90;742.53;;;;;;;17.22;76.56;101445.13;4996047;28;20441;-73
2021/08/09 09:45:29;;;;;;;983.93;797.00;;;;;;;17.15;75.80;101442.50;4981004;28;20495;-73
2021/08/09 09:48:14;;;;;;;880.23;664.87;;;;;;;17.23;74.66;101412.38;4975270;28;20461;-73
2021/08/09 09:50:42;;;;;;;588.93;343.20;;;;;;;17.37;74.13;101445.56;4975567;28;20500;-74
2021/08/09 09:53:16;;;;;;;1012.13;755.63;;;;;;;17.68;73.67;101436.38;4980708;28;20547;-74
2021/08/09 09:55:42;;;;;;;890.60;633.90;;;;;;;17.71;73.95;101454.88;4975126;28;20528;-75
2021/08/09 09:58:08;;;;;;;964.10;700.47;;;;;;;17.63;74.48;101450.59;4976273;28;20867;-73
2021/08/09 10:00:34;;;;;;;672.40;486.77;;;;;;;17.67;73.46;101431.97;4975645;28;20477;-74
2021/08/09 10:03:00;;;;;;;825.17;599.20;;;;;;;17.72;74.46;101450.28;4990853;28;20811;-74
2021/08/09 10:05:27;;;;;;;711.93;530.10;;;;;;;17.17;72.64;101323.84;4976810;28;20217;-74
2021/08/09 10:07:54;;;;;;;870.90;587.27;;;;;;;17.79;72.47;101457.31;4980254;28;20233;-74
2021/08/09 10:10:23;;;;;;;653.03;508.03;;;;;;;17.84;73.49;101451.16;4983906;28;20524;-74
2021/08/09 10:12:50;;;;;;;862.40;673.17;;;;;;;17.86;72.33;101421.09;4979637;28;20437;-73
2021/08/09 10:15:20;;;;;;;697.93;465.97;;;;;;;18.10;73.41;101447.22;4981068;28;20846;-75
2021/08/09 10:17:50;;;;;;;660.03;515.43;;;;;;;17.65;72.79;101384.44;4976554;28;20457;-73
2021/08/09 10:20:17;;;;;;;910.03;681.37;;;;;;;17.10;71.42;101310.38;4981494;28;20441;-75
2021/08/09 10:23:00;;;;;;;947.43;705.60;;;;;;;18.01;72.61;101464.91;4981437;28;20448;-74
2021/08/09 10:25:51;;;;;;;670.30;455.57;;;;;;;18.53;71.22;101448.78;4979764;28;21000;-75
2021/08/09 10:28:17;;;;;;;1143.87;687.13;;;;;;;18.14;68.83;101431.28;4982858;28;20428;-76
2021/08/09 10:30:43;;;;;;;889.17;685.97;;;;;;;18.48;69.09;101454.91;4979974;28;20442;-75
2021/08/09 10:33:10;;;;;;;767.47;538.70;;;;;;;18.71;68.66;101442.38;4983783;28;20444;-74
2021/08/09 10:35:43;;;;;;;700.67;480.17;;;;;;;19.02;67.76;101452.03;4978851;28;20186;-74
2021/08/09 10:38:13;;;;;;;487.20;300.97;;;;;;;19.15;66.33;101461.81;4977262;28;20545;-74
2021/08/09 10:40:38;;;;;;;558.73;326.03;;;;;;;18.89;67.08;101452.28;4983217;28;20552;-74
2021/08/09 10:43:04;;;;;;;378.53;224.77;;;;;;;18.92;65.68;101463.53;4980470;28;20542;-74
2021/08/09 10:45:40;;;;;;;742.70;564.23;;;;;;;18.36;66.01;101393.50;4978704;28;20182;-74
2021/08/09 10:48:06;;;;;;;338.33;216.80;;;;;;;18.80;65.10;101456.44;4984211;28;20457;-75
2021/08/09 10:50:34;;;;;;;309.53;184.50;;;;;;;19.07;64.13;101456.78;4986022;28;20445;-75
2021/08/09 10:52:59;;;;;;;324.30;202.03;;;;;;;18.99;63.58;101419.09;4984737;28;20472;-74